This is the latest recevied weather packets stored in our database for station/object KK6LZB. If no packets are shown the sender has not sent any weather packets the latest 10 day(s).
| Time | Temp. | Humidity | Pressure | Rain* | Wind** | Luminosity | Snow |
|---|---|---|---|---|---|---|---|
| 1778177579 | 20.56° C | 77% | 1018.2 hPa | 0 mm | - | 658 W/m² | - |
| 1778177276 | 20.56° C | 77% | 1018.2 hPa | 0 mm | - | 650 W/m² | - |
| 1778176973 | 20.56° C | 77% | 1018.3 hPa | 0 mm | - | 645 W/m² | - |
| 1778176668 | 20.56° C | 77% | 1018.2 hPa | 0 mm | - | 636 W/m² | - |
| 1778176366 | 20.56° C | 78% | 1018.4 hPa | 0 mm | - | 626 W/m² | - |
| 1778176063 | 20° C | 78% | 1018.3 hPa | 0 mm | - | 617 W/m² | - |
| 1778175761 | 20.56° C | 77% | 1018.5 hPa | 0 mm | - | 608 W/m² | - |
| 1778175459 | 20° C | 79% | 1018.2 hPa | 0 mm | - | 594 W/m² | - |
| 1778175155 | 20° C | 77% | 1018.4 hPa | 0 mm | - | 588 W/m² | - |
| 1778174852 | 20.56° C | 77% | 1018.4 hPa | 0 mm | - | 576 W/m² | - |
| 1778174549 | 20° C | 79% | 1018.5 hPa | 0 mm | - | 567 W/m² | - |
| 1778174249 | 19.44° C | 80% | 1018.5 hPa | 0 mm | - | 556 W/m² | - |
| 1778173946 | 19.44° C | 80% | 1018.5 hPa | 0 mm | - | 541 W/m² | - |
| 1778173643 | 19.44° C | 79% | 1018.6 hPa | 0 mm | - | 528 W/m² | - |
| 1778173340 | 19.44° C | 79% | 1018.5 hPa | 0 mm | - | 517 W/m² | - |
| 1778173036 | 18.89° C | 81% | 1018.7 hPa | 0 mm | - | 502 W/m² | - |
| 1778172732 | 19.44° C | 80% | 1018.6 hPa | 0 mm | - | 484 W/m² | - |
| 1778172428 | 19.44° C | 80% | 1018.7 hPa | 0 mm | - | 476 W/m² | - |
| 1778172126 | 19.44° C | 81% | 1018.5 hPa | 0 mm | - | 462 W/m² | - |
| 1778171822 | 19.44° C | 80% | 1018.4 hPa | 0 mm | - | 443 W/m² | - |
| 1778171520 | 19.44° C | 81% | 1018.7 hPa | 0 mm | - | 432 W/m² | - |
| 1778171216 | 18.89° C | 82% | 1018.5 hPa | 0 mm | - | 421 W/m² | - |
| 1778170912 | 17.78° C | 85% | 1018.5 hPa | 0 mm | - | 404 W/m² | - |
| 1778170609 | 17.78° C | 85% | 1018.5 hPa | 0 mm | - | 390 W/m² | - |
| 1778170305 | 17.22° C | 87% | 1018.5 hPa | 0 mm | - | 375 W/m² | - |
* Rain latest hour (hover to see other rain measurements)
** Current wind speed in m/s (hover to see current wind gust speed)